Time;durP1;ratioP1;P1;durP2;ratioP2;P2;SDS_P1;SDS_P2;PMS_P1;PMS_P2;Temp;Humidity;BMP_temperature;BMP_pressure;BME280_temperature;BME280_humidity;BME280_pressure;Samples;Min_cycle;Max_cycle;Signal;HPM_P1;HPM_P2
2021/03/28 00:00:53;;;;;;;1.40;1.30;;;2.40;99.90;;;;;;5071779;28;20228;-72
2021/03/28 00:03:36;;;;;;;1.80;1.45;;;2.40;99.90;;;;;;5054731;28;20263;-72
2021/03/28 00:06:14;;;;;;;2.05;1.70;;;2.40;99.90;;;;;;5076227;28;20278;-72
2021/03/28 00:08:44;;;;;;;1.73;1.50;;;2.40;99.90;;;;;;5075745;28;21047;-72
2021/03/28 00:11:21;;;;;;;1.60;1.50;;;2.30;99.90;;;;;;5077465;28;20199;-74
2021/03/28 00:13:55;;;;;;;3.47;1.70;;;2.30;99.90;;;;;;5072335;28;20203;-73
2021/03/28 00:16:25;;;;;;;2.83;1.73;;;2.30;99.90;;;;;;5076352;28;20210;-72
2021/03/28 00:18:51;;;;;;;2.47;1.80;;;2.20;99.90;;;;;;5075405;28;20866;-72
2021/03/28 00:21:23;;;;;;;3.67;1.63;;;2.20;99.90;;;;;;5072355;28;20212;-72
2021/03/28 00:23:56;;;;;;;1.98;1.40;;;2.20;99.90;;;;;;5078289;28;20288;-73
2021/03/28 00:26:43;;;;;;;1.70;1.60;;;2.20;99.90;;;;;;5075532;28;20204;-73
2021/03/28 00:29:24;;;;;;;2.75;1.60;;;2.10;99.90;;;;;;5079760;28;20220;-72
2021/03/28 00:32:04;;;;;;;3.40;1.40;;;2.10;99.90;;;;;;5059196;28;20197;-72
2021/03/28 00:34:42;;;;;;;4.13;1.80;;;2.00;99.90;;;;;;5052544;28;20253;-73
2021/03/28 00:37:07;;;;;;;3.47;1.58;;;2.00;99.90;;;;;;5053098;28;20254;-72
2021/03/28 00:39:46;;;;;;;1.70;1.40;;;2.00;99.90;;;;;;5078513;28;20200;-71
2021/03/28 00:43:02;;;;;;;2.40;1.60;;;2.00;99.90;;;;;;5055086;28;20711;-72
2021/03/28 00:45:40;;;;;;;1.92;1.55;;;2.00;99.90;;;;;;5075652;28;20560;-71
2021/03/28 00:48:22;;;;;;;2.97;2.03;;;2.00;99.90;;;;;;5075855;28;20200;-72
2021/03/28 00:51:19;;;;;;;2.08;1.73;;;2.00;99.90;;;;;;5070090;28;20198;-72
2021/03/28 00:53:51;;;;;;;1.77;1.58;;;1.90;99.90;;;;;;5066937;28;20200;-73
2021/03/28 00:56:23;;;;;;;2.85;1.73;;;1.90;99.90;;;;;;5059984;28;20212;-72
2021/03/28 00:58:51;;;;;;;3.05;2.08;;;1.90;99.90;;;;;;5076376;28;20200;-72
2021/03/28 01:01:39;;;;;;;2.40;1.73;;;1.80;99.90;;;;;;5070074;28;20655;-74
2021/03/28 01:04:08;;;;;;;2.97;1.80;;;1.80;99.90;;;;;;5066483;23;20296;-83
2021/03/28 01:06:54;;;;;;;2.95;1.77;;;1.80;99.90;;;;;;5052510;28;20189;-85
2021/03/28 01:09:47;;;;;;;2.50;1.75;;;1.80;99.90;;;;;;5041796;28;20307;-84
2021/03/28 01:12:34;;;;;;;2.42;1.88;;;1.70;99.90;;;;;;5057945;28;20696;-82
2021/03/28 01:15:24;;;;;;;2.95;1.80;;;1.70;99.90;;;;;;5057441;28;20212;-85
2021/03/28 01:18:25;;;;;;;2.55;1.98;;;1.70;99.90;;;;;;5054908;28;20201;-86
2021/03/28 01:21:28;;;;;;;2.00;1.40;;;1.70;99.90;;;;;;5038625;28;20200;-85
2021/03/28 01:24:07;;;;;;;2.15;1.70;;;1.60;99.90;;;;;;5054193;28;20200;-84
2021/03/28 01:26:41;;;;;;;2.42;1.70;;;1.50;99.90;;;;;;5052229;28;20258;-84
2021/03/28 01:29:16;;;;;;;1.98;1.58;;;1.50;99.90;;;;;;5040175;28;20203;-84
2021/03/28 01:31:55;;;;;;;3.10;2.05;;;1.50;99.90;;;;;;5055400;28;20222;-82
2021/03/28 01:34:31;;;;;;;2.75;1.70;;;1.40;99.90;;;;;;5053117;28;20315;-83
2021/03/28 01:37:18;;;;;;;2.38;1.58;;;1.40;99.90;;;;;;5044148;28;20206;-84
2021/03/28 01:40:04;;;;;;;2.35;1.40;;;1.40;99.90;;;;;;5037731;28;20192;-84
2021/03/28 01:42:34;;;;;;;3.30;1.80;;;1.40;99.90;;;;;;5054777;28;20209;-84
2021/03/28 01:45:38;;;;;;;2.17;1.73;;;1.40;99.90;;;;;;5038987;28;20711;-84
2021/03/28 01:48:22;;;;;;;1.98;1.50;;;1.30;99.90;;;;;;5037034;28;20207;-84
2021/03/28 01:51:19;;;;;;;2.33;1.80;;;1.30;99.90;;;;;;5034147;28;20204;-82
2021/03/28 01:54:13;;;;;;;1.98;1.60;;;1.20;99.90;;;;;;5043353;28;20678;-84
2021/03/28 01:57:05;;;;;;;2.92;1.80;;;1.30;99.90;;;;;;5056228;28;20196;-83
2021/03/28 01:59:56;;;;;;;2.03;1.65;;;1.30;99.90;;;;;;5053059;28;20251;-84
2021/03/28 02:02:41;;;;;;;1.85;1.52;;;1.20;99.90;;;;;;5053272;28;20571;-84
2021/03/28 02:05:33;;;;;;;2.70;1.60;;;1.20;99.90;;;;;;5055059;28;20228;-83
2021/03/28 02:08:07;;;;;;;3.28;1.73;;;1.10;99.90;;;;;;5054283;28;20203;-84
2021/03/28 02:10:55;;;;;;;3.53;1.85;;;1.10;99.90;;;;;;5055306;28;20262;-84
2021/03/28 02:13:54;;;;;;;2.40;1.90;;;1.10;99.90;;;;;;5046848;28;20682;-83
2021/03/28 02:16:55;;;;;;;6.00;2.03;;;1.10;99.90;;;;;;5042039;28;20202;-82
2021/03/28 02:19:25;;;;;;;2.45;1.98;;;1.10;99.90;;;;;;5046727;28;20209;-83
2021/03/28 02:22:17;;;;;;;3.78;2.05;;;1.00;99.90;;;;;;5052135;28;20197;-83
2021/03/28 02:24:50;;;;;;;2.50;2.03;;;1.00;99.90;;;;;;5052511;28;20682;-83
2021/03/28 02:27:48;;;;;;;3.40;2.20;;;1.00;99.90;;;;;;5040870;28;20193;-84
2021/03/28 02:30:29;;;;;;;6.07;2.17;;;1.00;99.90;;;;;;5051748;28;20197;-84
2021/03/28 02:33:14;;;;;;;3.40;2.40;;;1.00;99.90;;;;;;5035954;28;20327;-83
2021/03/28 02:35:57;;;;;;;3.67;2.63;;;1.00;99.90;;;;;;5036926;28;20619;-82
2021/03/28 02:39:08;;;;;;;4.30;2.38;;;1.10;99.90;;;;;;5053918;28;20197;-84
2021/03/28 02:41:54;;;;;;;3.50;2.58;;;1.00;99.90;;;;;;5032660;28;20215;-85
2021/03/28 02:44:38;;;;;;;4.25;2.40;;;1.00;99.90;;;;;;5054462;28;20206;-82
2021/03/28 02:47:19;;;;;;;3.40;2.60;;;1.00;99.90;;;;;;5058129;28;20200;-84
2021/03/28 02:50:11;;;;;;;5.57;3.00;;;1.00;99.90;;;;;;5060951;28;20204;-82
2021/03/28 02:52:56;;;;;;;5.40;3.10;;;1.00;99.90;;;;;;5022432;28;20694;-83
2021/03/28 02:55:21;;;;;;;7.22;3.35;;;1.00;99.90;;;;;;5036976;28;20271;-83
2021/03/28 02:58:16;;;;;;;4.13;2.70;;;1.00;99.90;;;;;;5060847;28;20197;-84
2021/03/28 03:01:09;;;;;;;4.15;2.90;;;1.00;99.90;;;;;;5043968;28;20200;-83
2021/03/28 03:03:38;;;;;;;6.30;2.88;;;1.00;99.90;;;;;;5042205;28;20229;-82
2021/03/28 03:06:04;;;;;;;4.10;2.90;;;1.00;99.90;;;;;;5055568;28;20283;-84
2021/03/28 03:08:53;;;;;;;4.10;2.92;;;1.00;99.90;;;;;;5046432;28;20602;-83
2021/03/28 03:11:41;;;;;;;3.90;2.80;;;0.90;99.90;;;;;;5048486;28;20239;-82
2021/03/28 03:14:44;;;;;;;3.60;2.53;;;0.90;99.90;;;;;;5019957;28;20295;-83
2021/03/28 03:17:53;;;;;;;3.38;2.50;;;0.80;99.90;;;;;;5057427;28;20987;-83
2021/03/28 03:20:21;;;;;;;4.63;2.67;;;0.80;99.90;;;;;;5058911;28;20262;-84
2021/03/28 03:23:22;;;;;;;4.05;2.78;;;0.80;99.90;;;;;;5041567;28;20217;-83
2021/03/28 03:26:02;;;;;;;3.15;2.50;;;0.80;99.90;;;;;;5057490;28;20651;-84
2021/03/28 03:28:40;;;;;;;3.08;2.33;;;0.80;99.90;;;;;;5055183;28;20190;-84
2021/03/28 03:31:40;;;;;;;4.45;2.50;;;0.80;99.90;;;;;;5037529;28;20202;-85
2021/03/28 03:34:47;;;;;;;3.47;2.50;;;0.80;99.90;;;;;;5054660;28;20300;-85
2021/03/28 03:37:48;;;;;;;3.20;2.40;;;0.70;99.90;;;;;;5021295;28;20296;-81
2021/03/28 03:40:19;;;;;;;3.13;2.30;;;0.80;99.90;;;;;;5042327;28;20199;-81
2021/03/28 03:43:12;;;;;;;3.03;2.30;;;0.80;99.90;;;;;;5040394;28;20324;-83
2021/03/28 03:45:58;;;;;;;3.53;2.50;;;0.80;99.90;;;;;;5038865;28;20224;-84
2021/03/28 03:48:29;;;;;;;7.43;2.50;;;0.80;99.90;;;;;;5037349;28;20549;-85
2021/03/28 03:51:03;;;;;;;3.33;2.17;;;0.80;99.90;;;;;;5057881;28;20751;-84
2021/03/28 03:53:35;;;;;;;3.28;2.38;;;0.80;99.90;;;;;;5044532;28;20203;-80
2021/03/28 03:56:27;;;;;;;3.85;2.60;;;0.80;99.90;;;;;;5041118;28;20613;-83
2021/03/28 03:59:12;;;;;;;2.92;2.42;;;0.70;99.90;;;;;;5039451;28;20204;-83
2021/03/28 04:01:56;;;;;;;4.60;2.40;;;0.70;99.90;;;;;;5044070;28;20197;-84
2021/03/28 04:05:19;;;;;;;3.53;2.20;;;0.60;99.90;;;;;;5033339;28;20231;-82
2021/03/28 04:08:05;;;;;;;2.47;1.92;;;0.60;99.90;;;;;;4950751;28;20207;-83
2021/03/28 04:10:39;;;;;;;3.13;2.38;;;0.60;99.90;;;;;;4959362;28;20208;-83
2021/03/28 04:13:11;;;;;;;3.03;2.10;;;0.60;99.90;;;;;;4961653;28;20215;-82
2021/03/28 04:15:48;;;;;;;3.80;2.40;;;0.50;99.90;;;;;;4954721;28;20284;-83
2021/03/28 04:18:47;;;;;;;3.75;2.60;;;0.50;99.90;;;;;;4957939;28;20579;-82
2021/03/28 04:21:28;;;;;;;4.25;2.10;;;0.50;99.90;;;;;;4945259;28;20573;-80
2021/03/28 04:24:15;;;;;;;4.10;2.42;;;0.50;99.90;;;;;;4962580;28;20291;-83
2021/03/28 04:26:44;;;;;;;3.67;2.33;;;0.50;99.90;;;;;;4962224;28;20222;-83
2021/03/28 04:29:12;;;;;;;3.75;2.15;;;0.40;99.90;;;;;;4958707;28;20219;-83
2021/03/28 04:31:47;;;;;;;4.55;2.28;;;0.40;99.90;;;;;;4957987;28;20212;-83
2021/03/28 04:34:16;;;;;;;5.75;2.50;;;0.40;99.90;;;;;;4961452;28;20219;-85
2021/03/28 04:37:02;;;;;;;3.42;2.30;;;0.40;99.90;;;;;;4956631;28;20249;-83
2021/03/28 04:39:52;;;;;;;3.08;2.22;;;0.40;99.90;;;;;;5044321;28;20209;-79
2021/03/28 04:42:33;;;;;;;2.55;2.08;;;0.40;99.90;;;;;;5036559;28;20207;-79
2021/03/28 04:45:26;;;;;;;3.08;2.20;;;0.30;99.90;;;;;;5055637;28;20197;-79
2021/03/28 04:48:29;;;;;;;3.25;2.10;;;0.30;99.90;;;;;;5058449;28;20200;-81
2021/03/28 04:51:21;;;;;;;2.95;1.92;;;0.30;99.90;;;;;;5053752;28;20289;-83
2021/03/28 04:54:07;;;;;;;3.00;1.90;;;0.20;99.90;;;;;;5056791;28;20211;-83
2021/03/28 04:56:35;;;;;;;2.55;2.03;;;0.10;99.90;;;;;;5041730;28;20597;-83
2021/03/28 04:59:10;;;;;;;2.17;1.80;;;0.10;99.90;;;;;;5056073;28;20212;-83
2021/03/28 05:01:54;;;;;;;3.13;1.90;;;0.00;99.90;;;;;;5060124;28;20196;-83
2021/03/28 05:04:36;;;;;;;2.83;1.80;;;-0.10;99.90;;;;;;5051075;28;20751;-84
2021/03/28 05:07:20;;;;;;;3.20;2.03;;;-0.20;99.90;;;;;;5035573;28;20200;-85
2021/03/28 05:10:01;;;;;;;2.45;1.90;;;-0.20;99.90;;;;;;5047465;28;20681;-82
2021/03/28 05:12:54;;;;;;;2.80;1.85;;;-0.10;99.90;;;;;;5039902;28;20717;-84
2021/03/28 05:15:58;;;;;;;5.57;1.80;;;-0.20;99.90;;;;;;5035531;28;20200;-83
2021/03/28 05:18:51;;;;;;;3.80;2.00;;;-0.20;99.90;;;;;;4986652;28;20308;-83
2021/03/28 05:21:23;;;;;;;2.55;2.00;;;-0.20;99.90;;;;;;5001300;28;20191;-83
2021/03/28 05:24:25;;;;;;;3.35;2.05;;;-0.10;99.90;;;;;;5024288;28;20262;-83
2021/03/28 05:27:16;;;;;;;4.60;1.73;;;-0.10;99.90;;;;;;5058460;28;20197;-84
2021/03/28 05:30:07;;;;;;;2.15;1.77;;;-0.20;99.90;;;;;;5045361;28;20218;-82
2021/03/28 05:32:48;;;;;;;2.00;1.50;;;-0.30;99.90;;;;;;5054418;28;20668;-83
2021/03/28 05:35:42;;;;;;;3.60;1.80;;;-0.30;99.90;;;;;;5046370;28;20216;-83
2021/03/28 05:38:45;;;;;;;2.78;1.60;;;-0.40;99.90;;;;;;5046135;28;20193;-84
2021/03/28 05:41:20;;;;;;;1.83;1.50;;;-0.30;99.90;;;;;;5043468;28;20661;-83
2021/03/28 05:44:11;;;;;;;1.75;1.60;;;-0.30;99.90;;;;;;5056743;28;20933;-82
2021/03/28 05:46:56;;;;;;;2.53;1.65;;;-0.20;99.90;;;;;;5055908;28;20751;-80
2021/03/28 05:49:36;;;;;;;2.13;1.70;;;-0.10;99.90;;;;;;5050270;28;20205;-82
2021/03/28 05:52:37;;;;;;;2.95;1.80;;;0.00;99.90;;;;;;5050645;28;20204;-82
2021/03/28 05:55:28;;;;;;;3.25;1.70;;;0.10;99.90;;;;;;5000167;28;20221;-83
2021/03/28 05:58:12;;;;;;;1.73;1.63;;;0.20;99.90;;;;;;5052271;28;20730;-83
2021/03/28 06:01:27;;;;;;;1.92;1.40;;;0.30;99.90;;;;;;5041157;28;20650;-84
2021/03/28 06:04:30;;;;;;;2.28;1.50;;;0.40;99.90;;;;;;5015569;28;20225;-83
2021/03/28 06:07:33;;;;;;;2.22;1.42;;;0.50;99.90;;;;;;5057125;28;20196;-82
2021/03/28 06:10:05;;;;;;;1.92;1.60;;;0.60;99.90;;;;;;5053846;28;20308;-83
2021/03/28 06:12:33;;;;;;;2.80;1.65;;;0.70;99.90;;;;;;5055958;28;20197;-84
2021/03/28 06:15:21;;;;;;;2.10;1.52;;;0.80;99.90;;;;;;5066512;28;20296;-84
2021/03/28 06:18:08;;;;;;;4.47;1.73;;;0.90;99.90;;;;;;5058528;28;20247;-83
2021/03/28 06:20:50;;;;;;;2.08;1.45;;;1.00;99.90;;;;;;5067036;28;20197;-86
2021/03/28 06:23:34;;;;;;;2.95;1.58;;;1.10;99.90;;;;;;5061024;28;20215;-85
2021/03/28 06:26:49;;;;;;;2.22;1.63;;;1.20;99.90;;;;;;5051925;28;20189;-85
2021/03/28 06:29:44;;;;;;;1.40;1.30;;;1.30;99.90;;;;;;5052467;28;20558;-84
2021/03/28 06:32:28;;;;;;;2.97;1.63;;;1.40;99.90;;;;;;5065757;28;20556;-83
2021/03/28 06:35:23;;;;;;;2.47;1.50;;;1.60;99.90;;;;;;5043039;28;20216;-83
2021/03/28 06:38:14;;;;;;;1.40;1.20;;;1.70;99.90;;;;;;5044731;28;20204;-86
2021/03/28 06:40:58;;;;;;;1.40;1.23;;;1.90;99.90;;;;;;5044594;28;20188;-84
2021/03/28 06:43:45;;;;;;;1.35;1.25;;;2.00;99.90;;;;;;5059133;28;20207;-86
2021/03/28 06:46:52;;;;;;;1.38;1.20;;;2.10;99.90;;;;;;5062492;28;20213;-85
2021/03/28 06:49:39;;;;;;;2.75;1.35;;;2.20;99.90;;;;;;5058093;28;20211;-86
2021/03/28 06:52:36;;;;;;;2.65;1.30;;;2.30;99.90;;;;;;5058759;28;20232;-85
2021/03/28 06:55:40;;;;;;;1.80;1.30;;;2.40;99.90;;;;;;4962337;28;20243;-85
2021/03/28 06:58:16;;;;;;;4.00;1.20;;;2.60;99.90;;;;;;5063132;28;20197;-84
2021/03/28 07:01:10;;;;;;;4.38;1.50;;;2.60;99.90;;;;;;5064825;28;20265;-85
2021/03/28 07:04:10;;;;;;;1.30;1.20;;;2.70;99.90;;;;;;5064786;28;20227;-84
2021/03/28 07:06:56;;;;;;;1.60;1.20;;;2.80;99.90;;;;;;5047454;28;20740;-84
2021/03/28 07:09:34;;;;;;;1.77;1.23;;;2.90;99.90;;;;;;5058188;28;20217;-84
2021/03/28 07:12:37;;;;;;;1.20;1.00;;;2.90;99.90;;;;;;5063984;28;20240;-79
2021/03/28 07:15:33;;;;;;;1.95;1.30;;;3.00;99.90;;;;;;5034915;28;20224;-85
2021/03/28 07:18:27;;;;;;;1.63;1.17;;;3.00;99.90;;;;;;5060400;28;20212;-82
2021/03/28 07:21:04;;;;;;;1.50;1.20;;;3.10;99.90;;;;;;5058246;28;20653;-82
2021/03/28 07:23:59;;;;;;;2.33;1.20;;;3.20;99.90;;;;;;5034155;28;20205;-79
2021/03/28 07:26:54;;;;;;;1.52;1.20;;;3.20;99.90;;;;;;5007914;28;20292;-79
2021/03/28 07:29:39;;;;;;;1.63;1.13;;;3.30;99.90;;;;;;5043097;28;20610;-81
2021/03/28 07:32:28;;;;;;;1.73;1.10;;;3.50;99.90;;;;;;5039400;28;20748;-80
2021/03/28 07:35:16;;;;;;;1.30;1.20;;;3.60;99.90;;;;;;5048813;28;20717;-80
2021/03/28 07:38:19;;;;;;;1.40;1.08;;;3.70;99.90;;;;;;5055402;28;20201;-81
2021/03/28 07:41:27;;;;;;;1.70;1.20;;;3.90;99.90;;;;;;5053330;28;20219;-78
2021/03/28 07:44:29;;;;;;;1.80;1.10;;;4.00;99.90;;;;;;5049677;28;20295;-79
2021/03/28 07:47:07;;;;;;;1.52;1.20;;;4.20;99.90;;;;;;5053348;28;20213;-79
2021/03/28 07:55:02;;;;;;;1.20;1.10;;;4.60;99.90;;;;;;3378978;26;20240;-76
2021/03/28 07:57:31;;;;;;;4.82;1.10;;;4.80;99.90;;;;;;5037263;28;20234;-76
2021/03/28 08:00:17;;;;;;;1.80;1.27;;;4.90;99.90;;;;;;5051085;28;20295;-76
2021/03/28 08:03:01;;;;;;;1.75;1.20;;;5.00;99.90;;;;;;5048770;28;20197;-76
2021/03/28 08:06:04;;;;;;;1.50;1.27;;;5.10;99.90;;;;;;5036445;28;20196;-76
2021/03/28 08:09:08;;;;;;;2.65;1.20;;;5.10;99.90;;;;;;5054571;28;20209;-76
2021/03/28 08:11:43;;;;;;;1.05;0.98;;;5.40;99.90;;;;;;5012552;28;20254;-76
2021/03/28 08:14:18;;;;;;;1.38;1.00;;;5.60;99.90;;;;;;5054907;28;20783;-76
2021/03/28 08:17:02;;;;;;;1.92;1.23;;;5.70;99.90;;;;;;5058024;28;20658;-76
2021/03/28 08:19:31;;;;;;;1.75;1.20;;;5.90;99.90;;;;;;5038884;28;20638;-76
2021/03/28 08:22:29;;;;;;;2.90;1.30;;;6.10;99.90;;;;;;5061221;28;20339;-76
2021/03/28 08:25:21;;;;;;;1.40;1.05;;;6.10;99.90;;;;;;5060348;28;20256;-76
2021/03/28 08:28:07;;;;;;;1.30;1.10;;;6.40;99.90;;;;;;5056681;28;20208;-76
2021/03/28 08:31:11;;;;;;;2.03;1.05;;;6.40;99.90;;;;;;5044261;28;20211;-76
2021/03/28 08:33:58;;;;;;;1.50;1.23;;;6.40;99.90;;;;;;5058543;28;20203;-76
2021/03/28 08:36:36;;;;;;;2.03;1.40;;;6.60;99.90;;;;;;5057692;28;20239;-76
2021/03/28 08:39:20;;;;;;;5.63;1.40;;;6.50;99.90;;;;;;5055864;28;20280;-76
2021/03/28 08:42:06;;;;;;;4.00;1.65;;;6.60;99.90;;;;;;5058578;28;20221;-76
2021/03/28 08:45:09;;;;;;;2.13;1.30;;;6.70;99.90;;;;;;5060322;28;20734;-76
2021/03/28 08:47:47;;;;;;;1.75;1.17;;;6.80;99.90;;;;;;5057452;28;20671;-76
2021/03/28 08:50:44;;;;;;;2.47;1.33;;;6.90;99.90;;;;;;5041012;28;20201;-76
2021/03/28 08:53:35;;;;;;;2.33;1.15;;;6.90;99.90;;;;;;5049444;28;20224;-76
2021/03/28 08:56:18;;;;;;;2.28;1.33;;;7.10;99.90;;;;;;5047804;28;20216;-76
2021/03/28 08:59:00;;;;;;;2.45;1.30;;;7.00;99.90;;;;;;5047962;28;20197;-76
2021/03/28 09:01:32;;;;;;;1.80;1.23;;;7.20;99.90;;;;;;5047766;28;20211;-76
2021/03/28 09:04:22;;;;;;;1.30;1.20;;;7.40;99.90;;;;;;5053207;28;20200;-76
2021/03/28 09:07:09;;;;;;;2.92;1.20;;;7.30;99.90;;;;;;5048030;28;20218;-76
2021/03/28 09:10:04;;;;;;;2.05;1.40;;;7.40;99.90;;;;;;5049094;28;20211;-77
2021/03/28 09:12:55;;;;;;;3.75;1.35;;;7.60;99.90;;;;;;5046603;28;20259;-76
2021/03/28 09:15:33;;;;;;;2.13;1.30;;;7.60;99.90;;;;;;5044987;28;20377;-76
2021/03/28 09:18:33;;;;;;;3.30;1.30;;;7.80;99.90;;;;;;5049869;28;20239;-76
2021/03/28 09:21:21;;;;;;;2.55;1.35;;;8.30;99.90;;;;;;5036221;28;20829;-76
2021/03/28 09:24:07;;;;;;;2.33;1.20;;;8.40;99.90;;;;;;5052606;28;20197;-76
2021/03/28 09:26:51;;;;;;;1.63;1.30;;;8.50;99.90;;;;;;5030407;28;20296;-77
2021/03/28 09:29:38;;;;;;;2.22;1.40;;;8.80;99.90;;;;;;5027620;28;20675;-76
2021/03/28 09:32:33;;;;;;;2.78;1.20;;;8.90;99.90;;;;;;5035739;28;20702;-76
2021/03/28 09:35:18;;;;;;;1.70;1.20;;;8.70;99.90;;;;;;5022809;28;20253;-76
2021/03/28 09:37:49;;;;;;;2.25;1.20;;;8.50;99.90;;;;;;5052693;28;20200;-76
2021/03/28 09:40:30;;;;;;;3.97;1.17;;;8.40;99.90;;;;;;5031816;28;20283;-75
2021/03/28 09:43:28;;;;;;;1.60;1.20;;;8.50;99.90;;;;;;5046724;28;20810;-74
2021/03/28 09:46:05;;;;;;;3.42;1.10;;;8.50;99.90;;;;;;5001760;28;20204;-74
2021/03/28 09:48:58;;;;;;;4.60;1.20;;;8.80;99.90;;;;;;5049265;28;20192;-76
2021/03/28 09:51:58;;;;;;;1.65;1.02;;;9.30;99.90;;;;;;5053646;28;20632;-76
2021/03/28 09:54:39;;;;;;;1.23;1.10;;;9.70;99.90;;;;;;5057220;28;20255;-76
2021/03/28 09:57:11;;;;;;;2.08;1.27;;;9.60;99.90;;;;;;5043195;28;20196;-76
2021/03/28 10:00:10;;;;;;;1.05;0.93;;;9.70;99.90;;;;;;5059039;28;20617;-76
2021/03/28 10:02:43;;;;;;;1.95;1.10;;;9.70;99.90;;;;;;5058135;28;20192;-76
2021/03/28 10:05:25;;;;;;;3.08;1.05;;;10.20;99.90;;;;;;5057087;28;20206;-74
2021/03/28 10:08:00;;;;;;;3.10;1.08;;;10.70;99.90;;;;;;5045840;28;20237;-76
2021/03/28 10:10:41;;;;;;;2.95;1.20;;;11.10;99.90;;;;;;5044374;28;20546;-76
2021/03/28 10:13:34;;;;;;;1.33;0.90;;;11.30;99.90;;;;;;5064807;28;20192;-75
2021/03/28 10:16:05;;;;;;;3.70;1.10;;;11.40;97.90;;;;;;5059913;28;20213;-75
2021/03/28 10:18:53;;;;;;;2.75;1.10;;;10.70;95.70;;;;;;5047167;28;20280;-76
2021/03/28 10:21:24;;;;;;;2.47;1.10;;;10.50;97.80;;;;;;5060647;28;20217;-74
2021/03/28 10:24:27;;;;;;;2.65;0.98;;;10.60;99.90;;;;;;5060052;28;20204;-74
2021/03/28 10:26:52;;;;;;;3.92;1.00;;;10.90;97.00;;;;;;5058726;28;20773;-74
2021/03/28 10:29:29;;;;;;;2.95;1.00;;;10.40;95.50;;;;;;5057927;28;20244;-74
2021/03/28 10:32:22;;;;;;;1.63;1.08;;;10.50;97.50;;;;;;5039483;28;20239;-73
2021/03/28 10:35:29;;;;;;;1.85;1.10;;;10.80;96.20;;;;;;5058443;28;20220;-76
2021/03/28 10:38:03;;;;;;;3.58;1.08;;;11.20;97.10;;;;;;4956359;28;20212;-75
2021/03/28 10:40:51;;;;;;;2.03;1.00;;;11.60;95.30;;;;;;5049792;28;20299;-74
2021/03/28 10:43:28;;;;;;;1.00;0.90;;;11.80;97.10;;;;;;5049830;28;20204;-76
2021/03/28 10:45:57;;;;;;;2.88;1.02;;;11.90;96.30;;;;;;5046823;28;20304;-74
2021/03/28 10:48:41;;;;;;;2.75;1.10;;;12.10;93.40;;;;;;5051498;28;20302;-74
2021/03/28 10:51:15;;;;;;;4.50;1.17;;;11.90;91.50;;;;;;5034974;28;20228;-75
2021/03/28 10:54:19;;;;;;;2.22;1.00;;;12.00;91.50;;;;;;5048099;28;20220;-75
2021/03/28 10:57:09;;;;;;;3.83;1.05;;;12.20;91.50;;;;;;5038814;28;20224;-73
2021/03/28 11:00:03;;;;;;;4.00;1.05;;;11.80;90.10;;;;;;5050600;28;20201;-75
2021/03/28 11:02:47;;;;;;;1.48;0.90;;;11.80;92.30;;;;;;5053622;28;20189;-75
2021/03/28 11:05:37;;;;;;;2.40;1.10;;;12.30;92.50;;;;;;5024881;28;20545;-75
2021/03/28 11:08:05;;;;;;;2.60;1.05;;;12.50;89.30;;;;;;5054475;28;20196;-75
2021/03/28 11:10:55;;;;;;;2.42;1.17;;;12.30;90.80;;;;;;5050189;28;20315;-75
2021/03/28 11:13:55;;;;;;;2.08;1.20;;;12.30;87.50;;;;;;5047486;28;20347;-75
2021/03/28 11:16:57;;;;;;;1.08;0.90;;;12.20;92.00;;;;;;5048121;28;20197;-75
2021/03/28 11:19:55;;;;;;;3.75;1.00;;;12.30;88.00;;;;;;5040331;28;20212;-75
2021/03/28 11:22:44;;;;;;;4.10;1.00;;;11.80;89.60;;;;;;5050009;28;20193;-76
2021/03/28 11:25:28;;;;;;;1.95;1.10;;;12.00;89.20;;;;;;5027509;28;20686;-75
2021/03/28 11:27:53;;;;;;;2.65;1.20;;;12.00;89.00;;;;;;5030544;28;20208;-75
2021/03/28 11:30:31;;;;;;;3.03;1.02;;;11.70;89.80;;;;;;5050443;28;20608;-75
2021/03/28 11:33:20;;;;;;;3.25;1.02;;;11.80;89.30;;;;;;5035588;28;20223;-75
2021/03/28 11:35:55;;;;;;;6.57;1.17;;;12.10;91.30;;;;;;5036057;28;20248;-75
2021/03/28 11:38:20;;;;;;;4.50;1.15;;;12.40;89.30;;;;;;5053597;28;20258;-76
2021/03/28 11:41:10;;;;;;;1.60;1.00;;;12.70;90.70;;;;;;5052543;28;20788;-76
2021/03/28 11:43:59;;;;;;;3.33;1.10;;;13.10;88.00;;;;;;5045083;28;20626;-75
2021/03/28 11:46:32;;;;;;;2.58;1.00;;;12.90;88.40;;;;;;5031693;28;20201;-76
2021/03/28 11:48:58;;;;;;;1.38;1.00;;;13.10;90.80;;;;;;5050613;28;20205;-75
2021/03/28 11:51:37;;;;;;;4.47;1.10;;;13.40;89.40;;;;;;5047787;28;20201;-75
2021/03/28 11:54:16;;;;;;;3.63;1.00;;;13.60;85.10;;;;;;5051091;28;20728;-76
2021/03/28 11:56:49;;;;;;;3.22;1.20;;;13.10;84.10;;;;;;5052618;28;20335;-76
2021/03/28 11:59:17;;;;;;;1.85;0.93;;;13.10;88.60;;;;;;5046400;28;20207;-75
2021/03/28 12:02:04;;;;;;;2.42;1.20;;;12.80;84.80;;;;;;5055298;28;20205;-76
2021/03/28 12:05:02;;;;;;;1.38;1.00;;;12.50;86.60;;;;;;5051188;28;20201;-75
2021/03/28 12:07:44;;;;;;;2.50;1.10;;;12.50;90.40;;;;;;5019922;28;20209;-75
2021/03/28 12:10:09;;;;;;;1.63;0.98;;;12.90;88.30;;;;;;5031155;28;20571;-74
2021/03/28 12:12:47;;;;;;;10.63;1.10;;;12.10;90.30;;;;;;5054414;28;20213;-76
2021/03/28 12:15:47;;;;;;;2.15;0.98;;;11.70;91.10;;;;;;5050874;28;20211;-76
2021/03/28 12:18:22;;;;;;;4.07;1.30;;;12.10;92.30;;;;;;5051595;28;20764;-75
2021/03/28 12:21:03;;;;;;;2.85;1.38;;;12.90;90.80;;;;;;5050368;28;20283;-76
2021/03/28 12:23:38;;;;;;;2.42;1.20;;;13.20;88.30;;;;;;5054577;28;20231;-75
2021/03/28 12:26:25;;;;;;;1.45;0.98;;;12.80;89.30;;;;;;5056103;28;20192;-75
2021/03/28 12:29:01;;;;;;;2.65;1.10;;;12.50;90.50;;;;;;5033454;28;20228;-75
2021/03/28 12:31:32;;;;;;;1.48;1.00;;;12.40;87.70;;;;;;5050140;28;20200;-75
2021/03/28 12:34:27;;;;;;;2.75;1.17;;;11.60;89.50;;;;;;5051383;28;20223;-76
2021/03/28 12:37:08;;;;;;;2.92;1.20;;;11.00;90.70;;;;;;5051216;28;20210;-77
2021/03/28 12:39:43;;;;;;;5.72;1.20;;;10.60;91.00;;;;;;5050550;28;20856;-76
2021/03/28 12:42:31;;;;;;;2.80;1.25;;;10.60;92.50;;;;;;5027550;28;20215;-75
2021/03/28 12:45:06;;;;;;;4.22;1.50;;;10.60;91.30;;;;;;5033488;28;20754;-75
2021/03/28 12:47:41;;;;;;;3.70;1.27;;;10.50;93.90;;;;;;5053249;28;20201;-75
2021/03/28 12:50:16;;;;;;;5.93;1.55;;;10.80;93.20;;;;;;5049647;28;20283;-76
2021/03/28 12:52:51;;;;;;;2.30;1.10;;;10.90;92.40;;;;;;5047574;28;20561;-76
2021/03/28 12:55:29;;;;;;;2.15;1.27;;;10.80;92.90;;;;;;5027963;28;20237;-75
2021/03/28 12:58:13;;;;;;;3.40;1.27;;;11.10;93.00;;;;;;5031711;28;20205;-76
2021/03/28 13:00:56;;;;;;;7.85;1.60;;;11.40;94.00;;;;;;5033342;28;20197;-76
2021/03/28 13:03:30;;;;;;;5.03;1.40;;;11.80;92.10;;;;;;5035344;28;20210;-76
2021/03/28 13:06:15;;;;;;;6.65;2.10;;;12.00;91.90;;;;;;5017713;28;20311;-76
2021/03/28 13:08:59;;;;;;;2.83;1.30;;;12.40;91.80;;;;;;5029546;28;20209;-76
2021/03/28 13:11:49;;;;;;;7.18;1.30;;;12.50;89.20;;;;;;5032880;28;20294;-75
2021/03/28 13:14:42;;;;;;;10.30;1.63;;;11.90;90.00;;;;;;5028751;28;20267;-76
2021/03/28 13:17:14;;;;;;;7.25;1.38;;;12.20;90.60;;;;;;5018021;28;20205;-76
2021/03/28 13:19:44;;;;;;;5.18;1.42;;;11.90;88.50;;;;;;5016115;28;20201;-76
2021/03/28 13:22:24;;;;;;;6.13;1.42;;;11.50;91.70;;;;;;5028011;28;20204;-76
2021/03/28 13:25:04;;;;;;;3.90;1.23;;;11.70;92.70;;;;;;5035770;28;20706;-77
2021/03/28 13:27:30;;;;;;;3.85;1.40;;;12.30;91.70;;;;;;5033404;28;20247;-77
2021/03/28 13:30:00;;;;;;;3.65;1.38;;;12.10;90.00;;;;;;5015491;28;20291;-76
2021/03/28 13:32:38;;;;;;;6.38;1.90;;;11.60;92.30;;;;;;5016184;28;20750;-76
2021/03/28 13:35:27;;;;;;;4.97;1.70;;;11.40;91.80;;;;;;5029996;28;20224;-76
2021/03/28 13:37:54;;;;;;;6.25;1.30;;;11.60;91.60;;;;;;5032311;28;20205;-76
2021/03/28 13:40:49;;;;;;;5.43;1.30;;;12.00;92.70;;;;;;5031345;28;20322;-77
2021/03/28 13:43:22;;;;;;;4.50;1.42;;;12.30;90.30;;;;;;5026229;28;20212;-76
2021/03/28 13:45:51;;;;;;;6.75;1.73;;;12.10;90.90;;;;;;5016307;28;20862;-76
2021/03/28 13:48:16;;;;;;;4.63;1.30;;;12.20;91.10;;;;;;5028587;28;20210;-75
2021/03/28 13:50:54;;;;;;;6.03;1.33;;;11.90;90.00;;;;;;5034288;28;20201;-76
2021/03/28 13:53:23;;;;;;;7.50;1.70;;;11.50;91.50;;;;;;5016821;28;20201;-76
2021/03/28 13:55:51;;;;;;;9.80;1.42;;;11.40;91.60;;;;;;5053411;28;20654;-77
2021/03/28 13:58:27;;;;;;;9.25;1.80;;;11.10;92.30;;;;;;5051277;28;20197;-76
2021/03/28 14:01:23;;;;;;;14.43;2.20;;;11.00;93.50;;;;;;5053923;28;20212;-76
2021/03/28 14:03:53;;;;;;;8.05;1.52;;;10.80;94.10;;;;;;5053846;28;20197;-76
2021/03/28 14:06:21;;;;;;;8.88;1.75;;;10.80;92.90;;;;;;5037967;28;20197;-76
2021/03/28 14:08:52;;;;;;;20.90;6.38;;;10.50;93.50;;;;;;5048218;28;20613;-76
2021/03/28 14:11:25;;;;;;;12.35;3.42;;;10.50;93.90;;;;;;5052155;28;20212;-76
2021/03/28 14:14:11;;;;;;;10.35;2.70;;;10.40;94.00;;;;;;5033734;28;20717;-76
2021/03/28 14:16:42;;;;;;;6.60;1.90;;;10.30;95.00;;;;;;5052520;28;20247;-77
2021/03/28 14:19:13;;;;;;;9.30;1.90;;;10.20;95.10;;;;;;5026215;28;20308;-76
2021/03/28 14:21:42;;;;;;;5.50;1.77;;;10.30;94.90;;;;;;5057359;28;20236;-76
2021/03/28 14:24:23;;;;;;;5.88;1.55;;;10.20;95.80;;;;;;5035956;28;20255;-76
2021/03/28 14:27:17;;;;;;;6.80;2.03;;;10.10;95.90;;;;;;5057225;28;20286;-77